Time;durP1;ratioP1;P1;durP2;ratioP2;P2;SDS_P1;SDS_P2;PMS_P1;PMS_P2;Temp;Humidity;BMP_temperature;BMP_pressure;BME280_temperature;BME280_humidity;BME280_pressure;Samples;Min_cycle;Max_cycle;Signal;HPM_P1;HPM_P2
2023/06/08 00:00:41;;;;;;;5.55;4.65;;;19.10;99.90;;;;;;4979605;28;20030;-71
2023/06/08 00:03:07;;;;;;;6.85;4.85;;;19.10;99.90;;;;;;4997199;28;20022;-71
2023/06/08 00:05:43;;;;;;;9.48;5.35;;;19.00;99.90;;;;;;4979341;28;20030;-71
2023/06/08 00:08:09;;;;;;;7.13;4.72;;;19.00;99.90;;;;;;4989026;28;20015;-70
2023/06/08 00:10:34;;;;;;;5.80;4.65;;;19.00;99.90;;;;;;4996776;28;20034;-71
2023/06/08 00:13:00;;;;;;;6.82;4.75;;;19.00;99.90;;;;;;4997001;28;20077;-70
2023/06/08 00:15:27;;;;;;;11.13;5.78;;;19.00;99.90;;;;;;4996852;28;20073;-70
2023/06/08 00:17:52;;;;;;;8.25;5.05;;;19.00;99.90;;;;;;4997043;28;20019;-71
2023/06/08 00:20:18;;;;;;;7.85;5.75;;;19.00;99.90;;;;;;4996925;28;20114;-70
2023/06/08 00:22:47;;;;;;;6.07;5.28;;;19.00;99.90;;;;;;4996801;28;20023;-71
2023/06/08 00:25:13;;;;;;;10.02;6.03;;;19.00;99.90;;;;;;4996523;28;20033;-70
2023/06/08 00:27:39;;;;;;;6.15;4.93;;;19.00;99.90;;;;;;4997214;28;20037;-71
2023/06/08 00:30:05;;;;;;;9.25;5.40;;;18.90;99.90;;;;;;4998866;28;20085;-71
2023/06/08 00:32:31;;;;;;;7.70;5.70;;;18.90;99.90;;;;;;5000877;28;20030;-71
2023/06/08 00:34:57;;;;;;;7.93;5.47;;;18.90;99.90;;;;;;5000571;28;20110;-71
2023/06/08 00:37:22;;;;;;;8.45;6.05;;;18.90;99.90;;;;;;5000852;28;20466;-70
2023/06/08 00:39:48;;;;;;;7.68;5.32;;;18.90;99.90;;;;;;5000203;28;20027;-71
2023/06/08 00:42:14;;;;;;;7.22;5.15;;;18.90;99.90;;;;;;5000610;28;20030;-71
2023/06/08 00:44:39;;;;;;;7.78;5.38;;;18.90;99.90;;;;;;5000310;28;20034;-71
2023/06/08 00:47:05;;;;;;;9.13;6.28;;;18.90;99.90;;;;;;5000575;28;20022;-70
2023/06/08 00:49:32;;;;;;;6.90;5.50;;;19.00;99.90;;;;;;5000377;28;20034;-71
2023/06/08 00:52:00;;;;;;;6.70;5.07;;;19.00;99.90;;;;;;4987011;28;20073;-71
2023/06/08 00:54:30;;;;;;;9.10;6.03;;;19.00;99.90;;;;;;4999874;28;20023;-71
2023/06/08 00:57:00;;;;;;;7.18;6.10;;;19.00;99.90;;;;;;5007282;28;20092;-71
2023/06/08 00:59:30;;;;;;;6.05;4.60;;;19.10;99.90;;;;;;5001879;28;20022;-71
2023/06/08 01:01:57;;;;;;;6.63;4.95;;;19.00;99.90;;;;;;5002297;28;20026;-71
2023/06/08 01:04:23;;;;;;;5.85;4.80;;;19.00;99.90;;;;;;5023346;28;20029;-71
2023/06/08 01:06:54;;;;;;;9.38;4.95;;;19.10;99.90;;;;;;5002178;28;20030;-70
2023/06/08 01:09:23;;;;;;;8.88;4.90;;;19.10;99.90;;;;;;5019388;28;20034;-72
2023/06/08 01:12:20;;;;;;;7.45;5.55;;;19.10;99.90;;;;;;5019366;28;20490;-71
2023/06/08 01:15:05;;;;;;;7.13;5.15;;;19.10;99.90;;;;;;5012189;28;20058;-71
2023/06/08 01:17:44;;;;;;;8.00;4.20;;;19.10;99.90;;;;;;5019339;28;20113;-70
2023/06/08 01:20:29;;;;;;;7.28;5.28;;;19.10;99.90;;;;;;5019097;28;20029;-71
2023/06/08 01:23:22;;;;;;;6.05;5.30;;;19.10;99.90;;;;;;5001747;28;20441;-71
2023/06/08 01:25:55;;;;;;;6.38;5.43;;;19.10;99.90;;;;;;5009533;28;20415;-71
2023/06/08 01:28:23;;;;;;;8.48;5.40;;;19.10;99.90;;;;;;5019103;28;20061;-71
2023/06/08 01:30:49;;;;;;;8.50;5.57;;;19.10;99.90;;;;;;5019261;28;20033;-70
2023/06/08 01:33:18;;;;;;;7.63;4.82;;;19.10;99.90;;;;;;5018948;28;20026;-70
2023/06/08 01:36:05;;;;;;;7.35;5.45;;;19.20;99.90;;;;;;5019213;28;20144;-70
2023/06/08 01:39:05;;;;;;;9.63;4.93;;;19.10;99.90;;;;;;5018668;28;20010;-70
2023/06/08 01:41:37;;;;;;;8.88;5.22;;;19.10;99.90;;;;;;5004919;28;20034;-71
2023/06/08 01:44:06;;;;;;;5.50;4.55;;;19.10;99.90;;;;;;5019103;28;20422;-70
2023/06/08 01:46:32;;;;;;;7.30;4.90;;;19.10;99.90;;;;;;5001266;28;20027;-71
2023/06/08 01:49:01;;;;;;;8.25;5.53;;;19.10;99.90;;;;;;5019076;28;20032;-71
2023/06/08 01:51:29;;;;;;;6.82;5.20;;;19.10;99.90;;;;;;5018663;28;20034;-70
2023/06/08 01:54:05;;;;;;;6.35;4.82;;;19.10;99.90;;;;;;5018513;28;20045;-71
2023/06/08 01:56:31;;;;;;;8.77;5.70;;;19.10;99.90;;;;;;5018436;28;20042;-71
2023/06/08 01:58:57;;;;;;;7.80;6.47;;;19.00;99.90;;;;;;5000983;28;20022;-70
2023/06/08 02:01:23;;;;;;;8.95;4.80;;;19.00;99.90;;;;;;5018755;28;20371;-70
2023/06/08 02:03:49;;;;;;;6.93;5.60;;;19.00;99.90;;;;;;5021314;28;20032;-71
2023/06/08 02:06:15;;;;;;;7.18;5.13;;;19.00;99.90;;;;;;5018605;28;20026;-71
2023/06/08 02:08:41;;;;;;;6.18;5.55;;;19.00;99.90;;;;;;5018097;28;20030;-71
2023/06/08 02:11:08;;;;;;;9.40;4.95;;;19.00;99.90;;;;;;5018238;28;20018;-72
2023/06/08 02:13:37;;;;;;;9.48;5.60;;;19.00;99.90;;;;;;5018507;28;20406;-71
2023/06/08 02:16:03;;;;;;;8.88;5.43;;;19.00;99.90;;;;;;5009191;28;20025;-71
2023/06/08 02:18:28;;;;;;;9.02;5.22;;;19.00;99.90;;;;;;5018201;28;20054;-71
2023/06/08 02:20:55;;;;;;;9.73;5.95;;;19.00;99.90;;;;;;5018487;28;20423;-71
2023/06/08 02:23:20;;;;;;;8.07;5.47;;;19.00;99.90;;;;;;4999322;28;20032;-71
2023/06/08 02:25:49;;;;;;;11.65;6.55;;;19.00;99.90;;;;;;5018134;28;20045;-71
2023/06/08 02:28:15;;;;;;;9.52;5.68;;;19.00;99.90;;;;;;5018084;28;20060;-71
2023/06/08 02:30:41;;;;;;;6.07;5.15;;;19.00;99.90;;;;;;5017987;28;20478;-70
2023/06/08 02:33:07;;;;;;;10.63;5.63;;;19.00;99.90;;;;;;5017785;28;20034;-71
2023/06/08 02:35:33;;;;;;;9.18;5.50;;;19.00;99.90;;;;;;5018161;28;20022;-71
2023/06/08 02:37:59;;;;;;;7.85;6.00;;;19.00;99.90;;;;;;4999902;28;20022;-71
2023/06/08 02:40:25;;;;;;;6.97;6.05;;;19.00;99.90;;;;;;5017728;28;20050;-71
2023/06/08 02:42:50;;;;;;;9.85;6.13;;;19.00;99.90;;;;;;5017748;28;20042;-71
2023/06/08 02:45:16;;;;;;;12.15;6.28;;;19.00;99.90;;;;;;5017724;28;20032;-70
2023/06/08 02:47:42;;;;;;;9.63;6.28;;;19.00;99.90;;;;;;5017841;28;20037;-71
2023/06/08 02:50:07;;;;;;;6.65;5.75;;;19.00;99.90;;;;;;5017680;28;20053;-71
2023/06/08 02:52:34;;;;;;;11.10;6.05;;;19.10;99.90;;;;;;5017161;28;20553;-71
2023/06/08 02:54:59;;;;;;;6.60;5.90;;;19.10;99.90;;;;;;5017356;28;20029;-70
2023/06/08 02:57:25;;;;;;;7.53;5.47;;;19.10;99.90;;;;;;5006350;28;20051;-70
2023/06/08 02:59:52;;;;;;;9.32;7.32;;;19.10;99.90;;;;;;4997997;28;20022;-70
2023/06/08 03:02:18;;;;;;;9.68;5.60;;;19.20;99.90;;;;;;4990116;28;20028;-70
2023/06/08 03:04:45;;;;;;;7.72;5.78;;;19.20;99.90;;;;;;4982280;28;20031;-71
2023/06/08 03:07:15;;;;;;;6.85;5.20;;;19.30;99.90;;;;;;4995578;28;20032;-70
2023/06/08 03:09:41;;;;;;;7.45;5.70;;;19.30;99.90;;;;;;4980116;28;20065;-71
2023/06/08 03:12:09;;;;;;;9.07;6.38;;;19.30;99.90;;;;;;4997102;28;20113;-71
2023/06/08 03:14:36;;;;;;;7.85;5.25;;;19.30;99.90;;;;;;4997849;28;20057;-71
2023/06/08 03:17:03;;;;;;;9.43;6.80;;;19.30;99.90;;;;;;4996649;28;20030;-71
2023/06/08 03:19:32;;;;;;;9.30;6.30;;;19.40;99.90;;;;;;4997531;28;20146;-71
2023/06/08 03:22:04;;;;;;;7.00;5.68;;;19.40;99.90;;;;;;4997463;28;20049;-70
2023/06/08 03:24:32;;;;;;;11.18;5.80;;;19.30;99.90;;;;;;4997262;28;20058;-71
2023/06/08 03:26:58;;;;;;;6.43;5.47;;;19.30;99.90;;;;;;4997433;28;20034;-71
2023/06/08 03:29:25;;;;;;;7.13;5.53;;;19.40;99.90;;;;;;4997547;28;20097;-71
2023/06/08 03:31:51;;;;;;;11.15;6.40;;;19.30;99.90;;;;;;4997221;28;20026;-71
2023/06/08 03:34:18;;;;;;;10.82;6.47;;;19.40;99.90;;;;;;4997606;28;20022;-71
2023/06/08 03:36:45;;;;;;;6.20;5.43;;;19.30;99.90;;;;;;4997612;28;20076;-71
2023/06/08 03:39:11;;;;;;;9.68;6.22;;;19.30;99.90;;;;;;4997009;28;20073;-70
2023/06/08 03:41:37;;;;;;;8.13;6.03;;;19.40;99.90;;;;;;4979877;28;20372;-72
2023/06/08 03:44:03;;;;;;;11.45;6.22;;;19.40;99.90;;;;;;4987385;28;20050;-71
2023/06/08 03:46:28;;;;;;;9.02;6.10;;;19.40;99.90;;;;;;4997299;28;20030;-71
2023/06/08 03:48:54;;;;;;;8.77;5.97;;;19.40;99.90;;;;;;4997018;28;20053;-71
2023/06/08 03:51:21;;;;;;;6.82;5.45;;;19.30;99.90;;;;;;4997079;28;20033;-71
2023/06/08 03:53:48;;;;;;;11.70;6.25;;;19.30;99.90;;;;;;4979357;28;20509;-71
2023/06/08 03:56:13;;;;;;;8.65;6.38;;;19.30;99.90;;;;;;4996946;28;20026;-72
2023/06/08 03:58:41;;;;;;;9.48;6.93;;;19.30;99.90;;;;;;4996896;28;20034;-71
2023/06/08 04:01:09;;;;;;;6.68;5.97;;;19.30;99.90;;;;;;4996910;28;20399;-71
2023/06/08 04:03:35;;;;;;;9.52;6.15;;;19.30;99.90;;;;;;4997497;28;20383;-72
2023/06/08 04:06:00;;;;;;;7.38;6.00;;;19.20;99.90;;;;;;5002049;28;20030;-71
2023/06/08 04:08:26;;;;;;;7.43;6.10;;;19.20;99.90;;;;;;5000933;28;20027;-71
2023/06/08 04:10:52;;;;;;;14.00;7.28;;;19.20;99.90;;;;;;5000831;28;20097;-72
2023/06/08 04:13:17;;;;;;;8.02;5.55;;;19.10;99.90;;;;;;5000999;28;20033;-70
2023/06/08 04:15:43;;;;;;;8.00;7.05;;;19.10;99.90;;;;;;5000783;28;20101;-71
2023/06/08 04:18:09;;;;;;;9.57;6.47;;;19.10;99.90;;;;;;4982426;28;20049;-70
2023/06/08 04:20:35;;;;;;;11.25;6.72;;;19.10;99.90;;;;;;5000900;28;20101;-71
2023/06/08 04:23:01;;;;;;;8.07;6.20;;;19.00;99.90;;;;;;5000469;28;20021;-71
2023/06/08 04:25:26;;;;;;;11.10;6.75;;;19.00;99.90;;;;;;4983030;28;20038;-71
2023/06/08 04:27:52;;;;;;;13.05;6.85;;;19.00;99.90;;;;;;4983276;28;20030;-70
2023/06/08 04:30:18;;;;;;;8.38;6.57;;;18.90;99.90;;;;;;5000593;28;20026;-71
2023/06/08 04:32:45;;;;;;;11.68;6.93;;;18.90;99.90;;;;;;5000337;28;20034;-71
2023/06/08 04:35:11;;;;;;;11.23;6.97;;;18.90;99.90;;;;;;5000472;28;20015;-71
2023/06/08 04:37:37;;;;;;;9.30;7.50;;;18.90;99.90;;;;;;5000329;28;20033;-72
2023/06/08 04:40:04;;;;;;;9.77;6.47;;;18.80;99.90;;;;;;5000680;28;20041;-71
2023/06/08 04:42:32;;;;;;;7.72;6.75;;;18.80;99.90;;;;;;5000466;28;20019;-71
2023/06/08 04:45:00;;;;;;;8.18;6.45;;;18.80;99.90;;;;;;5000459;28;20022;-70
2023/06/08 04:47:29;;;;;;;11.80;7.00;;;18.80;99.90;;;;;;4995595;28;20023;-71
2023/06/08 04:49:56;;;;;;;11.48;7.20;;;18.80;99.90;;;;;;5000597;28;20053;-71
2023/06/08 04:52:22;;;;;;;10.05;7.18;;;18.80;99.90;;;;;;4999937;28;20030;-71
2023/06/08 04:54:52;;;;;;;10.00;6.57;;;18.90;99.90;;;;;;4983321;28;20498;-70
2023/06/08 04:57:21;;;;;;;9.10;6.97;;;18.90;99.90;;;;;;4999935;28;20503;-71
2023/06/08 04:59:47;;;;;;;8.90;6.45;;;19.00;99.90;;;;;;4982702;28;20022;-71
2023/06/08 05:02:13;;;;;;;13.77;6.60;;;19.10;99.90;;;;;;4999883;28;20041;-70
2023/06/08 05:04:39;;;;;;;10.70;6.75;;;19.10;99.90;;;;;;5001731;28;20090;-71
2023/06/08 05:07:05;;;;;;;9.05;6.75;;;19.20;99.90;;;;;;4999834;28;20026;-71
2023/06/08 05:09:31;;;;;;;7.30;6.13;;;19.30;99.90;;;;;;4999841;28;20114;-70
2023/06/08 05:11:56;;;;;;;11.10;6.15;;;19.30;99.90;;;;;;4999717;28;20105;-71
2023/06/08 05:14:22;;;;;;;7.60;6.15;;;19.40;99.90;;;;;;4999922;28;20045;-71
2023/06/08 05:16:48;;;;;;;9.43;5.93;;;19.50;99.90;;;;;;4999549;28;20037;-70
2023/06/08 05:19:13;;;;;;;9.80;5.70;;;19.60;99.90;;;;;;5000048;28;20084;-70
2023/06/08 05:21:40;;;;;;;10.95;5.50;;;19.60;99.90;;;;;;4999587;28;20034;-71
2023/06/08 05:24:06;;;;;;;6.88;5.32;;;19.70;99.90;;;;;;4999555;28;20034;-71
2023/06/08 05:26:32;;;;;;;7.60;5.72;;;19.90;99.90;;;;;;4999242;28;20034;-71
2023/06/08 05:28:58;;;;;;;7.72;5.50;;;20.00;99.90;;;;;;4999721;28;20109;-71
2023/06/08 05:31:24;;;;;;;8.00;5.32;;;20.10;99.90;;;;;;4998136;28;20101;-71
2023/06/08 05:33:49;;;;;;;6.70;5.70;;;20.20;99.90;;;;;;4999642;28;20018;-70
2023/06/08 05:36:15;;;;;;;10.93;5.18;;;20.30;99.90;;;;;;4999489;28;20030;-71
2023/06/08 05:38:41;;;;;;;9.23;5.63;;;20.30;99.90;;;;;;4999102;28;20026;-71
2023/06/08 05:41:06;;;;;;;9.23;5.40;;;20.50;99.90;;;;;;4999260;28;20054;-71
2023/06/08 05:43:32;;;;;;;7.28;5.05;;;20.60;99.90;;;;;;4999635;28;20065;-70
2023/06/08 05:45:58;;;;;;;6.65;4.78;;;20.60;99.90;;;;;;4999171;28;20041;-71
2023/06/08 05:48:24;;;;;;;5.22;4.65;;;20.70;99.90;;;;;;4999386;28;20030;-70
2023/06/08 05:50:50;;;;;;;8.75;4.82;;;20.90;99.90;;;;;;4999258;28;20482;-70
2023/06/08 05:53:15;;;;;;;6.68;5.20;;;20.90;99.90;;;;;;4998862;28;20034;-70
2023/06/08 05:55:41;;;;;;;6.30;4.50;;;21.00;99.90;;;;;;4999073;28;20030;-70
2023/06/08 05:58:11;;;;;;;6.75;4.53;;;21.10;99.90;;;;;;4994422;28;20046;-71
2023/06/08 06:00:37;;;;;;;5.70;4.57;;;21.20;99.90;;;;;;5015449;28;20033;-71
2023/06/08 06:03:04;;;;;;;5.45;4.75;;;21.30;99.90;;;;;;5001054;28;20050;-70
2023/06/08 06:05:30;;;;;;;8.30;5.18;;;21.30;99.90;;;;;;5000477;28;20486;-70
2023/06/08 06:07:55;;;;;;;6.03;4.22;;;21.40;99.90;;;;;;5016083;28;20041;-70
2023/06/08 06:10:21;;;;;;;7.72;4.50;;;21.50;99.90;;;;;;5002656;28;20074;-70
2023/06/08 06:12:47;;;;;;;6.68;4.93;;;21.50;99.90;;;;;;5018355;28;20449;-71
2023/06/08 06:15:13;;;;;;;5.43;4.72;;;21.40;99.90;;;;;;5018155;28;21360;-70
2023/06/08 06:17:39;;;;;;;6.60;4.50;;;21.40;99.90;;;;;;5018715;28;20026;-70
2023/06/08 06:20:05;;;;;;;5.82;4.60;;;21.50;99.90;;;;;;5018068;28;20040;-70
2023/06/08 06:22:31;;;;;;;7.70;4.40;;;21.50;99.90;;;;;;5017950;28;20030;-70
2023/06/08 06:24:57;;;;;;;9.88;4.97;;;21.40;99.90;;;;;;4999677;28;20403;-70
2023/06/08 06:27:22;;;;;;;8.98;5.25;;;21.30;99.90;;;;;;5017541;28;20041;-69
2023/06/08 06:29:48;;;;;;;7.47;4.70;;;21.20;99.90;;;;;;5017985;28;20022;-70
2023/06/08 06:32:14;;;;;;;6.03;4.88;;;21.30;99.90;;;;;;5018232;28;20103;-70
2023/06/08 06:34:41;;;;;;;8.25;5.45;;;21.30;99.90;;;;;;5017751;28;20073;-70
2023/06/08 06:37:07;;;;;;;9.32;5.13;;;21.30;99.90;;;;;;5018149;28;20059;-69
2023/06/08 06:39:32;;;;;;;10.93;5.32;;;21.40;99.90;;;;;;5017175;28;20092;-70
2023/06/08 06:41:58;;;;;;;7.00;5.97;;;21.40;99.90;;;;;;5018067;28;20022;-71
2023/06/08 06:44:24;;;;;;;10.32;5.70;;;21.30;99.90;;;;;;5017674;28;20030;-71
2023/06/08 06:46:49;;;;;;;8.10;5.60;;;21.40;99.90;;;;;;5015809;28;20022;-72
2023/06/08 06:49:15;;;;;;;13.27;8.02;;;21.40;99.90;;;;;;4999853;28;20026;-71
2023/06/08 06:51:41;;;;;;;8.88;6.03;;;21.40;99.90;;;;;;5017828;28;20048;-71
2023/06/08 06:54:07;;;;;;;8.63;5.60;;;21.60;99.90;;;;;;5017460;28;20037;-70
2023/06/08 06:56:33;;;;;;;10.48;5.38;;;21.70;99.90;;;;;;4999792;28;20038;-70
2023/06/08 06:58:59;;;;;;;7.88;4.50;;;21.80;99.90;;;;;;5017337;28;20105;-71
2023/06/08 07:01:26;;;;;;;7.82;4.57;;;21.70;99.90;;;;;;5017779;28;20026;-70
2023/06/08 07:03:52;;;;;;;10.40;5.22;;;21.60;99.90;;;;;;5016891;28;20017;-71
2023/06/08 07:06:22;;;;;;;13.48;5.72;;;21.60;99.90;;;;;;5017674;28;20026;-71
2023/06/08 07:08:48;;;;;;;8.60;5.40;;;21.80;99.90;;;;;;4999449;28;20018;-71
2023/06/08 07:11:14;;;;;;;7.18;4.80;;;21.70;99.90;;;;;;5017267;28;20084;-71
2023/06/08 07:13:40;;;;;;;9.32;5.90;;;21.80;99.90;;;;;;5017184;28;20079;-71
2023/06/08 07:16:06;;;;;;;9.27;5.55;;;21.90;99.90;;;;;;5017658;28;20037;-69
2023/06/08 07:18:31;;;;;;;8.10;4.35;;;21.90;99.90;;;;;;4999666;28;20045;-70
2023/06/08 07:20:57;;;;;;;7.78;4.50;;;22.00;99.90;;;;;;5017092;28;20030;-69
2023/06/08 07:23:23;;;;;;;10.07;5.22;;;22.20;99.90;;;;;;5016938;28;20107;-70
2023/06/08 07:25:48;;;;;;;6.25;4.53;;;22.50;99.90;;;;;;5016956;28;20026;-70
2023/06/08 07:28:14;;;;;;;10.02;4.72;;;22.60;99.90;;;;;;4999350;28;20030;-70
2023/06/08 07:30:40;;;;;;;7.63;4.18;;;22.70;99.90;;;;;;4999313;28;20076;-70
2023/06/08 07:33:06;;;;;;;9.68;4.03;;;22.70;99.90;;;;;;5016965;28;20030;-70
2023/06/08 07:35:32;;;;;;;11.43;4.43;;;22.50;99.90;;;;;;5016931;28;20025;-70
2023/06/08 07:37:57;;;;;;;5.63;4.05;;;22.50;99.90;;;;;;5016683;28;20049;-70
2023/06/08 07:40:23;;;;;;;6.85;4.05;;;22.40;99.90;;;;;;5016085;28;20082;-70
2023/06/08 07:42:48;;;;;;;9.27;3.60;;;22.40;99.90;;;;;;5016503;28;20490;-69
2023/06/08 07:45:14;;;;;;;6.93;3.45;;;22.50;99.90;;;;;;5015468;28;20034;-70
2023/06/08 07:47:43;;;;;;;7.50;3.40;;;22.80;99.90;;;;;;5015463;28;20033;-70
2023/06/08 07:50:10;;;;;;;4.43;3.42;;;23.10;99.90;;;;;;5008952;28;20069;-70
2023/06/08 07:52:37;;;;;;;7.47;3.90;;;23.00;99.90;;;;;;5016499;28;20026;-69
2023/06/08 07:55:05;;;;;;;9.52;4.20;;;23.10;99.90;;;;;;5016882;28;20022;-69
2023/06/08 07:57:31;;;;;;;11.45;4.05;;;23.10;99.90;;;;;;5004692;28;20043;-69
2023/06/08 07:59:57;;;;;;;6.28;3.42;;;23.10;99.90;;;;;;4997042;28;20084;-69
2023/06/08 08:02:23;;;;;;;10.65;4.22;;;23.20;99.90;;;;;;4997113;28;20042;-69
2023/06/08 08:04:48;;;;;;;5.85;4.03;;;23.40;99.90;;;;;;4976350;28;20027;-69
2023/06/08 08:07:14;;;;;;;4.95;3.42;;;23.40;99.90;;;;;;4995061;28;20419;-69
2023/06/08 08:09:43;;;;;;;3.83;3.13;;;23.40;99.90;;;;;;4997281;28;20060;-69
2023/06/08 08:12:10;;;;;;;6.68;3.75;;;23.40;99.90;;;;;;4996746;28;20022;-69
2023/06/08 08:14:36;;;;;;;8.15;3.92;;;23.10;99.90;;;;;;4997202;28;20030;-69
2023/06/08 08:17:03;;;;;;;11.70;4.45;;;23.20;99.90;;;;;;4996992;28;20479;-69
2023/06/08 08:19:29;;;;;;;7.60;3.50;;;23.20;99.90;;;;;;4976515;28;20086;-69
2023/06/08 08:21:54;;;;;;;5.30;3.83;;;23.20;99.90;;;;;;4996693;28;20521;-69
2023/06/08 08:24:20;;;;;;;6.03;4.05;;;23.30;99.90;;;;;;4996978;28;20065;-69
2023/06/08 08:26:45;;;;;;;7.10;3.70;;;23.30;99.90;;;;;;4979248;28;20458;-69
2023/06/08 08:29:11;;;;;;;6.03;3.58;;;23.50;99.90;;;;;;4997052;28;20019;-70
2023/06/08 08:31:37;;;;;;;8.13;3.70;;;23.50;99.90;;;;;;4996960;28;20030;-69
2023/06/08 08:34:02;;;;;;;8.40;4.13;;;23.80;99.90;;;;;;4979492;28;20022;-69
2023/06/08 08:36:28;;;;;;;4.85;3.60;;;23.60;99.90;;;;;;4996741;28;20026;-69
2023/06/08 08:38:54;;;;;;;6.70;4.03;;;23.60;99.90;;;;;;4996755;28;20074;-69
2023/06/08 08:41:20;;;;;;;7.28;3.20;;;23.60;99.90;;;;;;4995312;28;20106;-69
2023/06/08 08:43:56;;;;;;;6.55;3.75;;;23.60;99.90;;;;;;4979494;28;20026;-69
2023/06/08 08:46:23;;;;;;;7.85;3.55;;;23.60;99.90;;;;;;4996761;28;20026;-69
2023/06/08 08:48:50;;;;;;;4.68;2.88;;;23.60;99.90;;;;;;4995756;28;20015;-69
2023/06/08 08:51:18;;;;;;;5.82;3.22;;;23.60;99.90;;;;;;4997887;28;20027;-69
2023/06/08 08:53:48;;;;;;;5.78;3.40;;;23.50;99.90;;;;;;5000310;28;20085;-69
2023/06/08 08:56:21;;;;;;;7.53;3.67;;;23.50;99.90;;;;;;5000251;28;20018;-70
2023/06/08 08:58:50;;;;;;;5.18;3.40;;;23.50;99.90;;;;;;5000174;28;20462;-69
2023/06/08 09:01:18;;;;;;;8.83;4.57;;;23.70;99.90;;;;;;5000750;28;20127;-69
2023/06/08 09:03:44;;;;;;;10.85;3.78;;;23.60;99.90;;;;;;4999030;28;20390;-70
2023/06/08 09:06:10;;;;;;;6.93;3.67;;;23.60;99.90;;;;;;4982582;28;20022;-69
2023/06/08 09:08:36;;;;;;;6.68;3.55;;;23.70;99.90;;;;;;4999976;28;20080;-69
2023/06/08 09:11:04;;;;;;;7.97;3.83;;;23.90;99.90;;;;;;5000270;28;20050;-69
2023/06/08 09:13:34;;;;;;;7.63;4.07;;;24.10;99.90;;;;;;5000170;28;20133;-69
2023/06/08 09:16:21;;;;;;;11.05;5.18;;;24.10;99.90;;;;;;4999895;28;20023;-69
2023/06/08 09:19:02;;;;;;;9.15;3.40;;;24.10;99.90;;;;;;4999873;28;20034;-69
2023/06/08 09:21:28;;;;;;;7.32;4.18;;;24.10;99.90;;;;;;4999819;28;20432;-69
2023/06/08 09:24:14;;;;;;;7.90;3.55;;;24.10;99.90;;;;;;4999878;28;20120;-69
2023/06/08 09:26:53;;;;;;;5.88;3.22;;;24.10;99.90;;;;;;4999713;28;20026;-69
2023/06/08 09:29:40;;;;;;;6.22;3.88;;;24.40;99.90;;;;;;4999794;28;20018;-69
2023/06/08 09:32:08;;;;;;;9.70;4.55;;;24.50;99.90;;;;;;4995485;28;20029;-69
2023/06/08 09:34:55;;;;;;;12.05;3.88;;;24.50;99.90;;;;;;4999498;28;20027;-69
2023/06/08 09:37:36;;;;;;;9.15;3.90;;;24.60;99.90;;;;;;4998152;28;20022;-69
2023/06/08 09:40:09;;;;;;;9.45;3.75;;;24.70;99.90;;;;;;4999551;28;20014;-69
2023/06/08 09:42:46;;;;;;;7.68;3.60;;;24.90;99.90;;;;;;4999461;28;20398;-69
2023/06/08 09:45:14;;;;;;;3.50;3.03;;;24.80;99.90;;;;;;4999742;28;20026;-69
2023/06/08 09:47:40;;;;;;;4.22;3.55;;;25.00;99.90;;;;;;4981613;28;20114;-69
2023/06/08 09:50:08;;;;;;;7.15;3.60;;;25.00;99.90;;;;;;4999631;28;20015;-69
2023/06/08 09:52:36;;;;;;;7.43;3.58;;;25.20;99.90;;;;;;4996228;28;20027;-70
2023/06/08 09:55:02;;;;;;;9.02;3.83;;;25.20;99.90;;;;;;4999176;28;20027;-69
2023/06/08 09:57:34;;;;;;;5.10;3.50;;;25.20;99.90;;;;;;4998960;28;20046;-69
2023/06/08 10:00:17;;;;;;;6.13;4.10;;;25.10;99.90;;;;;;4978484;28;20479;-69
2023/06/08 10:03:10;;;;;;;7.90;3.65;;;25.30;99.90;;;;;;4987444;28;20104;-71
2023/06/08 10:05:38;;;;;;;5.10;2.97;;;25.50;99.90;;;;;;4998474;28;20018;-71
2023/06/08 10:08:07;;;;;;;9.60;3.47;;;25.30;99.90;;;;;;4997953;28;20029;-70
2023/06/08 10:10:37;;;;;;;7.68;2.92;;;25.40;99.90;;;;;;4981313;28;20018;-71
2023/06/08 10:13:05;;;;;;;9.32;4.28;;;25.40;99.90;;;;;;4999214;28;20034;-70
2023/06/08 10:15:32;;;;;;;5.32;3.00;;;25.30;99.90;;;;;;4998735;28;20049;-70
2023/06/08 10:17:59;;;;;;;6.15;3.38;;;25.40;99.90;;;;;;4981420;28;20056;-70
2023/06/08 10:20:26;;;;;;;5.10;2.95;;;25.30;99.90;;;;;;4978071;28;20442;-71
2023/06/08 10:22:52;;;;;;;4.95;3.33;;;25.40;99.90;;;;;;4979119;28;20023;-70
2023/06/08 10:25:18;;;;;;;6.32;2.92;;;25.40;99.90;;;;;;4998809;28;20402;-71
2023/06/08 10:27:51;;;;;;;3.75;3.05;;;25.50;99.90;;;;;;4981140;28;20482;-71
2023/06/08 10:30:28;;;;;;;6.68;3.17;;;25.60;99.90;;;;;;4998836;28;20022;-71
2023/06/08 10:32:55;;;;;;;5.43;3.13;;;25.80;99.90;;;;;;4998492;28;20606;-70
2023/06/08 10:35:21;;;;;;;4.55;2.90;;;25.90;99.90;;;;;;4998917;28;20054;-70
2023/06/08 10:37:47;;;;;;;6.32;3.05;;;25.90;99.90;;;;;;4998023;28;20026;-70
2023/06/08 10:40:13;;;;;;;4.30;2.63;;;26.10;99.90;;;;;;4998273;28;20025;-71
2023/06/08 10:42:54;;;;;;;4.40;3.35;;;26.10;99.90;;;;;;4998398;28;20483;-71
2023/06/08 10:45:30;;;;;;;;;;;26.10;99.90;;;;;;4977888;28;20034;-70
2023/06/08 10:48:08;;;;;;;5.95;3.42;;;26.00;99.90;;;;;;4997671;28;20282;-71
2023/06/08 10:50:38;;;;;;;7.97;2.90;;;26.20;99.90;;;;;;4992949;28;20029;-71
2023/06/08 10:53:04;;;;;;;6.80;2.97;;;26.30;99.90;;;;;;4997847;28;20237;-72
2023/06/08 10:55:30;;;;;;;6.40;2.92;;;26.30;99.90;;;;;;4996650;28;20026;-71
2023/06/08 10:58:06;;;;;;;4.88;2.88;;;26.50;99.90;;;;;;4997727;28;20042;-71
2023/06/08 11:00:33;;;;;;;6.15;3.22;;;26.60;99.90;;;;;;4998011;28;20022;-71
2023/06/08 11:03:05;;;;;;;3.60;2.65;;;26.50;99.90;;;;;;4997973;28;20085;-71
2023/06/08 11:05:32;;;;;;;7.80;2.80;;;26.60;99.90;;;;;;5004996;28;20098;-71
2023/06/08 11:07:59;;;;;;;4.25;3.10;;;26.60;99.90;;;;;;4997588;28;20467;-71
2023/06/08 11:10:26;;;;;;;9.63;2.75;;;26.50;99.90;;;;;;4997912;28;20035;-70
2023/06/08 11:12:51;;;;;;;6.35;3.13;;;26.50;99.90;;;;;;4997621;28;20117;-72
2023/06/08 11:15:18;;;;;;;5.07;3.33;;;26.50;99.90;;;;;;4980222;28;20057;-71
2023/06/08 11:17:57;;;;;;;4.10;2.90;;;26.60;99.90;;;;;;4997648;28;20010;-71
2023/06/08 11:20:24;;;;;;;5.68;3.35;;;26.70;99.90;;;;;;4995554;28;20022;-71
2023/06/08 11:22:50;;;;;;;5.75;3.42;;;26.80;99.90;;;;;;4983650;28;20395;-71
2023/06/08 11:25:19;;;;;;;11.32;4.07;;;26.90;99.90;;;;;;4997433;28;20026;-70
2023/06/08 11:27:45;;;;;;;4.65;3.05;;;26.50;99.90;;;;;;4997488;28;20414;-71
2023/06/08 11:30:17;;;;;;;13.32;4.03;;;26.30;99.90;;;;;;4997351;28;20026;-71
2023/06/08 11:32:48;;;;;;;6.93;3.20;;;26.40;99.90;;;;;;4997217;28;20053;-71
2023/06/08 11:35:14;;;;;;;6.00;3.35;;;26.50;99.90;;;;;;4997374;28;20029;-72
2023/06/08 11:37:43;;;;;;;8.27;3.08;;;26.90;99.90;;;;;;4997263;28;20082;-71
2023/06/08 11:40:13;;;;;;;5.03;3.13;;;26.80;99.90;;;;;;4996299;28;20022;-71
2023/06/08 11:42:40;;;;;;;5.37;3.33;;;26.80;99.90;;;;;;4997197;28;20022;-71
2023/06/08 11:45:07;;;;;;;7.70;3.17;;;26.80;99.90;;;;;;4997237;28;20297;-71
2023/06/08 11:47:34;;;;;;;7.90;3.67;;;26.70;99.90;;;;;;4997212;28;20086;-72
2023/06/08 11:50:03;;;;;;;6.20;3.70;;;26.70;99.90;;;;;;4997385;28;20399;-71
2023/06/08 11:52:30;;;;;;;9.05;3.42;;;26.70;99.90;;;;;;4979168;28;20074;-71
2023/06/08 11:55:01;;;;;;;5.25;3.00;;;26.90;99.90;;;;;;4997504;28;20101;-71
2023/06/08 11:57:44;;;;;;;6.15;3.72;;;27.10;99.90;;;;;;4996744;28;20050;-70
2023/06/08 12:00:31;;;;;;;7.53;3.28;;;27.30;99.90;;;;;;4997333;28;20022;-69
2023/06/08 12:02:58;;;;;;;5.35;3.05;;;27.10;99.90;;;;;;4997255;28;20026;-70
2023/06/08 12:05:30;;;;;;;7.38;3.22;;;27.00;99.90;;;;;;4997407;28;20054;-70
2023/06/08 12:07:57;;;;;;;5.75;3.83;;;26.60;99.90;;;;;;4997001;28;20113;-68
2023/06/08 12:10:30;;;;;;;6.95;3.35;;;26.70;99.90;;;;;;4979174;28;20117;-69
2023/06/08 12:12:56;;;;;;;6.20;3.85;;;26.80;99.90;;;;;;4996733;28;20026;-69
2023/06/08 12:15:21;;;;;;;5.88;3.47;;;27.00;99.90;;;;;;4997186;28;20027;-68
2023/06/08 12:17:47;;;;;;;5.38;3.30;;;27.00;99.90;;;;;;4997193;28;20098;-69
2023/06/08 12:20:17;;;;;;;8.30;3.38;;;27.10;99.90;;;;;;4996653;28;20031;-70
2023/06/08 12:22:43;;;;;;;4.60;3.43;;;27.30;99.90;;;;;;4996735;28;20129;-69
2023/06/08 12:25:09;;;;;;;9.13;3.10;;;27.20;99.90;;;;;;4997644;28;20073;-70
2023/06/08 12:27:37;;;;;;;13.98;5.25;;;26.90;99.90;;;;;;5000759;28;20023;-70
2023/06/08 12:30:08;;;;;;;7.55;3.65;;;26.80;99.90;;;;;;5000893;28;20470;-70
2023/06/08 12:32:34;;;;;;;10.98;3.40;;;26.90;99.90;;;;;;5000784;28;20018;-69
2023/06/08 12:35:00;;;;;;;4.93;2.72;;;26.50;99.90;;;;;;5000829;28;20038;-69
2023/06/08 12:37:27;;;;;;;7.72;3.53;;;26.50;99.90;;;;;;4982839;28;20029;-69
2023/06/08 12:39:53;;;;;;;6.60;3.35;;;26.50;99.90;;;;;;5000750;28;20022;-69
2023/06/08 12:42:20;;;;;;;9.57;3.42;;;26.50;99.90;;;;;;4999710;28;20088;-69
2023/06/08 12:44:47;;;;;;;9.68;3.20;;;26.30;99.90;;;;;;4999951;28;20019;-69
2023/06/08 12:47:12;;;;;;;10.25;3.35;;;26.30;99.90;;;;;;5000842;28;20050;-69
2023/06/08 12:49:41;;;;;;;5.00;3.20;;;26.10;99.90;;;;;;5000559;28;20050;-69